createdAt,value
2022-08-26T00:00:56.743Z,22.92
2022-08-26T00:03:31.783Z,22.95
2022-08-26T00:06:04.072Z,22.73
2022-08-26T00:08:37.248Z,22.82
2022-08-26T00:11:10.852Z,22.85
2022-08-26T00:13:47.844Z,22.75
2022-08-26T00:16:21.951Z,22.68
2022-08-26T00:18:56.669Z,22.69
2022-08-26T00:21:28.495Z,22.63
2022-08-26T00:24:00.785Z,22.53
2022-08-26T00:26:34.429Z,22.53
2022-08-26T00:29:06.949Z,22.51
2022-08-26T00:31:41.599Z,22.47
2022-08-26T00:34:19.426Z,22.46
2022-08-26T00:36:52.494Z,22.42
2022-08-26T00:39:26.309Z,22.41
2022-08-26T00:41:57.955Z,22.41
2022-08-26T00:44:32.352Z,22.36
2022-08-26T00:47:08.850Z,22.32
2022-08-26T00:49:48.562Z,22.32
2022-08-26T00:52:25.055Z,22.26
2022-08-26T00:55:05.875Z,22.26
2022-08-26T00:57:41.953Z,22.27
2022-08-26T01:00:19.754Z,22.08
2022-08-26T01:02:52.852Z,22.25
2022-08-26T01:05:29.422Z,22.32
2022-08-26T01:11:16.870Z,22.25
2022-08-26T01:13:50.606Z,22.34
2022-08-26T01:16:22.807Z,22.40
2022-08-26T01:18:58.722Z,22.43
2022-08-26T01:21:41.239Z,22.39
2022-08-26T01:24:15.727Z,22.45
2022-08-26T01:26:48.508Z,22.45
2022-08-26T01:29:23.134Z,22.43
2022-08-26T01:31:59.243Z,22.48
2022-08-26T01:34:36.330Z,22.51
2022-08-26T01:37:15.501Z,22.48
2022-08-26T01:39:54.382Z,22.39
2022-08-26T01:42:31.561Z,22.37
2022-08-26T01:45:09.246Z,22.40
2022-08-26T01:47:42.304Z,22.35
2022-08-26T01:50:27.669Z,22.40
2022-08-26T01:53:03.780Z,22.34
2022-08-26T01:55:40.882Z,22.33
2022-08-26T01:58:26.232Z,22.27
2022-08-26T02:01:00.666Z,22.12
2022-08-26T02:03:35.298Z,22.19
2022-08-26T02:06:12.573Z,22.17
2022-08-26T02:08:48.018Z,22.16
2022-08-26T02:11:25.066Z,22.11
2022-08-26T02:14:03.927Z,22.12
2022-08-26T02:16:39.905Z,22.08
2022-08-26T02:19:20.954Z,22.09
2022-08-26T02:21:57.129Z,22.06
2022-08-26T02:24:33.184Z,22.02
2022-08-26T02:27:08.306Z,21.98
2022-08-26T02:29:46.833Z,22.06
2022-08-26T02:32:22.147Z,22.01
2022-08-26T02:34:55.888Z,22.03
2022-08-26T02:37:32.753Z,21.97
2022-08-26T02:40:08.316Z,21.87
2022-08-26T02:42:43.133Z,21.82
2022-08-26T02:45:23.159Z,21.69
2022-08-26T02:47:56.855Z,21.62
2022-08-26T02:50:30.045Z,21.66
2022-08-26T02:53:02.094Z,21.64
2022-08-26T02:55:35.401Z,21.57
2022-08-26T02:58:10.077Z,21.57
2022-08-26T03:00:52.907Z,21.58
2022-08-26T03:03:26.685Z,21.53
2022-08-26T03:06:00.790Z,21.54
2022-08-26T03:08:34.679Z,21.50
2022-08-26T03:11:06.407Z,21.53
2022-08-26T03:13:41.087Z,21.58
2022-08-26T03:16:14.030Z,21.57
2022-08-26T03:18:52.314Z,21.55
2022-08-26T03:21:25.373Z,21.52
2022-08-26T03:23:58.797Z,21.45
2022-08-26T03:26:31.770Z,21.46
2022-08-26T03:29:18.880Z,21.45
2022-08-26T03:31:51.638Z,21.36
2022-08-26T03:34:24.643Z,21.36
2022-08-26T03:36:58.251Z,21.39
2022-08-26T03:39:31.582Z,21.36
2022-08-26T03:42:05.553Z,21.32
2022-08-26T03:44:42.129Z,21.33
2022-08-26T03:47:15.688Z,21.28
2022-08-26T03:49:47.766Z,21.33
2022-08-26T03:52:20.135Z,21.34
2022-08-26T03:54:52.267Z,21.31
2022-08-26T03:57:24.388Z,21.28
2022-08-26T03:59:59.305Z,21.30
2022-08-26T04:02:31.794Z,21.29
2022-08-26T04:05:03.731Z,21.38
2022-08-26T04:07:35.830Z,21.35
2022-08-26T04:10:08.106Z,21.39
2022-08-26T04:12:43.143Z,21.32
2022-08-26T04:15:20.525Z,21.32
2022-08-26T04:17:52.982Z,21.32
2022-08-26T04:20:25.267Z,21.35
2022-08-26T04:22:57.752Z,21.40
2022-08-26T04:25:32.062Z,21.39
2022-08-26T04:28:04.929Z,21.36
2022-08-26T04:30:40.602Z,21.36
2022-08-26T04:33:14.931Z,21.37
2022-08-26T04:35:46.965Z,21.40
2022-08-26T04:38:23.138Z,21.47
2022-08-26T04:40:55.057Z,21.59
2022-08-26T04:43:31.519Z,21.72
2022-08-26T04:46:09.798Z,21.89
2022-08-26T04:48:46.047Z,21.97
2022-08-26T04:51:17.928Z,22.10
2022-08-26T04:53:50.422Z,22.17
2022-08-26T04:56:22.299Z,22.27
2022-08-26T04:58:54.762Z,22.34
2022-08-26T05:01:32.762Z,22.48
2022-08-26T05:04:07.935Z,22.62
2022-08-26T05:06:39.983Z,22.78
2022-08-26T05:09:16.294Z,22.90
2022-08-26T05:11:55.364Z,23.00
2022-08-26T05:14:28.303Z,23.02
2022-08-26T05:17:03.127Z,23.13
2022-08-26T05:19:37.429Z,23.36
2022-08-26T05:22:15.095Z,23.36
2022-08-26T05:24:50.989Z,23.47
2022-08-26T05:27:23.669Z,23.55
2022-08-26T05:30:00.282Z,23.56
2022-08-26T05:32:36.368Z,23.62
2022-08-26T05:35:11.749Z,23.76
2022-08-26T05:37:44.298Z,23.76
2022-08-26T05:40:17.295Z,23.90
2022-08-26T05:42:51.727Z,24.02
2022-08-26T05:45:25.569Z,24.14
2022-08-26T05:48:02.200Z,24.23
2022-08-26T05:50:41.779Z,24.34
2022-08-26T05:53:18.740Z,24.64
2022-08-26T05:55:55.430Z,24.72
2022-08-26T05:58:29.049Z,24.86
2022-08-26T06:01:06.629Z,24.97
2022-08-26T06:03:42.768Z,25.13
2022-08-26T06:06:20.677Z,25.30
2022-08-26T06:09:00.530Z,25.41
2022-08-26T06:11:34.849Z,25.34
2022-08-26T06:14:09.269Z,25.48
2022-08-26T06:16:44.473Z,25.41
2022-08-26T06:19:19.548Z,25.57
2022-08-26T06:21:55.189Z,25.73
2022-08-26T06:24:39.168Z,26.11
2022-08-26T06:27:15.280Z,26.42
2022-08-26T06:29:47.428Z,26.93
2022-08-26T06:32:20.029Z,27.19
2022-08-26T06:34:54.889Z,27.62
2022-08-26T06:37:27.249Z,28.02
2022-08-26T06:39:59.294Z,28.14
2022-08-26T06:42:31.529Z,28.59
2022-08-26T06:45:03.258Z,28.68
2022-08-26T06:47:36.608Z,28.54
2022-08-26T06:50:11.988Z,28.53
2022-08-26T06:52:45.707Z,28.67
2022-08-26T06:55:17.688Z,28.85
2022-08-26T06:57:50.747Z,28.74
2022-08-26T07:00:28.399Z,28.92
2022-08-26T07:03:00.176Z,28.76
2022-08-26T07:05:35.953Z,29.38
2022-08-26T07:08:07.754Z,29.64
2022-08-26T07:10:41.421Z,29.92
2022-08-26T07:13:14.213Z,30.34
2022-08-26T07:15:45.671Z,30.77
2022-08-26T07:18:17.615Z,30.67
2022-08-26T07:20:56.044Z,30.82
2022-08-26T07:23:30.848Z,30.91
2022-08-26T07:26:07.229Z,31.53
2022-08-26T07:28:39.897Z,31.41
2022-08-26T07:31:13.477Z,32.01
2022-08-26T07:33:46.902Z,32.01
2022-08-26T07:36:24.532Z,31.76
2022-08-26T07:38:59.399Z,31.82
2022-08-26T07:41:33.992Z,31.75
2022-08-26T07:44:10.569Z,31.89
2022-08-26T07:46:44.664Z,31.32
2022-08-26T07:49:27.103Z,31.05
2022-08-26T07:52:03.906Z,31.42
2022-08-26T07:54:37.924Z,31.40
2022-08-26T07:57:10.443Z,31.49
2022-08-26T07:59:43.031Z,31.98
2022-08-26T08:02:15.511Z,31.36
2022-08-26T08:04:48.855Z,31.10
2022-08-26T08:07:25.757Z,31.66
2022-08-26T08:10:13.354Z,31.37
2022-08-26T08:12:45.862Z,31.25
2022-08-26T08:15:20.661Z,31.31
2022-08-26T08:17:54.054Z,30.63
2022-08-26T08:20:30.765Z,30.99
2022-08-26T08:23:07.383Z,31.90
2022-08-26T08:25:40.506Z,31.40
2022-08-26T08:28:13.023Z,31.51
2022-08-26T08:30:45.909Z,31.79
2022-08-26T08:33:18.122Z,32.38
2022-08-26T08:35:50.765Z,32.64
2022-08-26T08:38:25.384Z,32.57
2022-08-26T08:40:59.205Z,32.47
2022-08-26T08:43:41.829Z,32.75
2022-08-26T08:46:17.650Z,32.45
2022-08-26T08:48:57.230Z,32.47
2022-08-26T08:51:39.854Z,32.72
2022-08-26T08:54:14.910Z,32.61
2022-08-26T08:56:53.449Z,32.77
2022-08-26T08:59:27.831Z,32.21
2022-08-26T09:02:07.637Z,32.10
2022-08-26T09:05:06.172Z,32.86
2022-08-26T09:07:44.708Z,33.32
2022-08-26T09:10:35.536Z,33.24
2022-08-26T09:13:16.321Z,33.28
2022-08-26T09:15:56.792Z,32.28
2022-08-26T09:18:46.064Z,32.85
2022-08-26T09:21:20.450Z,32.93
2022-08-26T09:23:58.091Z,33.04
2022-08-26T09:26:45.450Z,32.60
2022-08-26T09:29:26.831Z,32.47
2022-08-26T09:32:21.413Z,32.17
2022-08-26T09:35:02.230Z,32.41
2022-08-26T09:40:38.689Z,31.60
2022-08-26T09:43:22.609Z,31.59
2022-08-26T09:45:59.689Z,31.95
2022-08-26T09:48:36.234Z,32.03
2022-08-26T09:51:27.574Z,32.21
2022-08-26T09:54:01.469Z,32.29
2022-08-26T09:56:37.379Z,31.74
2022-08-26T09:59:13.749Z,32.62
2022-08-26T10:01:47.538Z,32.34
2022-08-26T10:04:26.733Z,33.43
2022-08-26T10:07:02.108Z,33.19
2022-08-26T10:09:38.908Z,33.50
2022-08-26T10:12:16.149Z,34.22
2022-08-26T10:14:56.109Z,33.93
2022-08-26T10:17:33.498Z,34.25
2022-08-26T10:20:22.954Z,34.32
2022-08-26T10:23:02.835Z,34.47
2022-08-26T10:25:38.450Z,34.73
2022-08-26T10:28:18.991Z,34.79
2022-08-26T10:30:59.332Z,34.53
2022-08-26T10:33:31.610Z,35.08
2022-08-26T10:36:29.612Z,35.48
2022-08-26T10:39:03.852Z,35.43
2022-08-26T10:41:48.817Z,34.79
2022-08-26T10:44:23.083Z,34.60
2022-08-26T10:47:04.941Z,34.16
2022-08-26T10:49:37.088Z,33.59
2022-08-26T10:52:17.551Z,33.66
2022-08-26T10:54:56.488Z,33.51
2022-08-26T10:57:47.163Z,33.81
2022-08-26T11:00:35.187Z,33.98
2022-08-26T11:03:26.294Z,34.01
2022-08-26T11:06:33.742Z,34.28
2022-08-26T11:09:11.843Z,34.49
2022-08-26T11:11:53.891Z,34.17
2022-08-26T11:14:42.033Z,33.48
2022-08-26T11:18:04.893Z,33.45
2022-08-26T11:20:44.609Z,32.75
2022-08-26T11:23:52.856Z,32.50
2022-08-26T11:26:55.440Z,32.30
2022-08-26T11:30:01.429Z,32.43
2022-08-26T11:32:49.758Z,31.60
2022-08-26T11:35:53.814Z,31.47
2022-08-26T11:38:31.491Z,31.06
2022-08-26T11:41:13.410Z,31.36
2022-08-26T11:43:47.950Z,31.37
2022-08-26T11:46:29.029Z,31.65
2022-08-26T11:49:05.633Z,30.97
2022-08-26T11:51:41.937Z,29.65
2022-08-26T11:54:30.489Z,27.88
2022-08-26T11:57:12.090Z,27.83
2022-08-26T11:59:45.650Z,27.47
2022-08-26T12:02:20.910Z,26.79
2022-08-26T12:04:57.230Z,25.73
2022-08-26T12:07:33.578Z,25.26
2022-08-26T12:10:09.149Z,25.17
2022-08-26T12:12:42.979Z,24.33
2022-08-26T12:15:20.671Z,24.41
2022-08-26T12:17:55.232Z,24.41
2022-08-26T12:20:49.093Z,23.76
2022-08-26T12:23:30.431Z,24.22
2022-08-26T12:26:09.912Z,24.04
2022-08-26T12:28:47.890Z,23.68
2022-08-26T12:31:35.707Z,23.97
2022-08-26T12:34:12.759Z,23.91
2022-08-26T12:36:53.299Z,24.04
2022-08-26T12:39:35.729Z,24.14
2022-08-26T12:42:24.352Z,23.57
2022-08-26T12:45:04.190Z,23.17
2022-08-26T12:47:42.624Z,23.10
2022-08-26T12:50:23.198Z,23.26
2022-08-26T12:53:01.031Z,23.09
2022-08-26T12:55:47.596Z,22.55
2022-08-26T12:58:32.093Z,22.61
2022-08-26T13:01:23.998Z,22.32
2022-08-26T13:03:56.410Z,22.28
2022-08-26T13:06:32.150Z,22.20
2022-08-26T13:09:06.743Z,22.24
2022-08-26T13:12:03.169Z,21.81
2022-08-26T13:14:35.412Z,21.70
2022-08-26T13:17:07.858Z,21.73
2022-08-26T13:19:40.349Z,21.62
2022-08-26T13:22:17.910Z,21.71
2022-08-26T13:24:49.998Z,21.99
2022-08-26T13:27:27.550Z,22.24
2022-08-26T13:30:02.052Z,22.24
2022-08-26T13:32:34.632Z,22.13
2022-08-26T13:35:07.391Z,22.01
2022-08-26T13:37:39.991Z,22.00
2022-08-26T13:40:16.491Z,21.20
2022-08-26T13:42:51.790Z,21.12
2022-08-26T13:45:24.209Z,20.99
2022-08-26T13:47:56.813Z,20.88
2022-08-26T13:50:28.823Z,21.06
2022-08-26T13:53:01.110Z,21.17
2022-08-26T13:55:33.332Z,21.01
2022-08-26T13:58:08.779Z,21.00
2022-08-26T14:00:41.624Z,21.14
2022-08-26T14:03:14.558Z,21.34
2022-08-26T14:05:46.752Z,21.14
2022-08-26T14:08:19.653Z,21.35
2022-08-26T14:10:52.487Z,21.20
2022-08-26T14:13:28.031Z,20.98
2022-08-26T14:16:01.962Z,20.87
2022-08-26T14:18:41.646Z,21.14
2022-08-26T14:21:17.212Z,21.01
2022-08-26T14:23:49.791Z,21.31
2022-08-26T14:26:28.658Z,21.75
2022-08-26T14:29:06.313Z,21.90
2022-08-26T14:31:38.789Z,21.97
2022-08-26T14:34:11.570Z,21.45
2022-08-26T14:36:43.792Z,21.16
2022-08-26T14:39:18.027Z,21.14
2022-08-26T14:41:55.158Z,21.12
2022-08-26T14:44:34.733Z,21.25
2022-08-26T14:47:12.114Z,21.43
2022-08-26T14:49:45.019Z,21.21
2022-08-26T14:52:19.676Z,20.38
2022-08-26T14:54:48.592Z,20.30
2022-08-26T14:57:26.714Z,20.35
2022-08-26T15:00:03.018Z,20.69
2022-08-26T15:02:34.698Z,20.94
2022-08-26T15:05:14.395Z,20.92
2022-08-26T15:07:53.454Z,20.83
2022-08-26T15:10:28.389Z,20.40
2022-08-26T15:12:59.919Z,20.18
2022-08-26T15:15:34.853Z,20.26
2022-08-26T15:18:07.530Z,20.01
2022-08-26T15:20:39.311Z,20.23
2022-08-26T15:23:11.981Z,20.08
2022-08-26T15:25:48.622Z,20.07
2022-08-26T15:28:20.143Z,20.26
2022-08-26T15:30:58.527Z,20.50
2022-08-26T15:33:30.574Z,20.51
2022-08-26T15:36:03.714Z,20.54
2022-08-26T15:38:37.664Z,20.38
2022-08-26T15:41:11.056Z,20.56
2022-08-26T15:43:42.856Z,20.67
2022-08-26T15:46:17.903Z,20.58
2022-08-26T15:48:49.857Z,20.61
2022-08-26T15:51:27.117Z,20.62
2022-08-26T15:53:59.656Z,20.66
2022-08-26T15:56:33.407Z,20.71
2022-08-26T15:59:09.155Z,20.66
2022-08-26T16:01:44.494Z,20.55
2022-08-26T16:04:17.902Z,20.59
2022-08-26T16:06:53.375Z,20.70
2022-08-26T16:09:28.175Z,20.50
2022-08-26T16:12:03.282Z,20.62
2022-08-26T16:14:35.577Z,20.67
2022-08-26T16:17:10.418Z,20.73
2022-08-26T16:19:42.516Z,20.69
2022-08-26T16:22:14.615Z,20.66
2022-08-26T16:29:26.975Z,20.69
2022-08-26T16:31:59.397Z,20.62
2022-08-26T16:34:34.175Z,20.48
2022-08-26T16:37:06.995Z,20.39
2022-08-26T16:39:50.835Z,20.40
2022-08-26T16:42:35.576Z,20.44
2022-08-26T16:45:09.638Z,20.55
2022-08-26T16:47:42.175Z,20.47
2022-08-26T16:50:17.755Z,20.62
2022-08-26T16:52:55.610Z,20.68
2022-08-26T16:55:28.042Z,20.56
2022-08-26T16:58:00.815Z,20.79
2022-08-26T17:00:35.437Z,20.73
2022-08-26T17:03:07.842Z,20.77
2022-08-26T17:05:43.436Z,20.87
2022-08-26T17:08:27.375Z,20.93
2022-08-26T17:11:05.237Z,20.94
2022-08-26T17:13:39.514Z,21.09
2022-08-26T17:16:14.523Z,21.03
2022-08-26T17:18:47.578Z,21.03
2022-08-26T17:21:22.564Z,21.04
2022-08-26T17:23:55.018Z,21.00
2022-08-26T17:26:27.175Z,21.11
2022-08-26T17:29:00.356Z,21.15
2022-08-26T17:31:32.881Z,21.13
2022-08-26T17:34:05.795Z,21.08
2022-08-26T17:36:40.741Z,21.10
2022-08-26T17:39:13.735Z,21.10
2022-08-26T17:41:46.143Z,21.04
2022-08-26T17:44:18.534Z,21.09
2022-08-26T17:46:50.735Z,21.23
2022-08-26T17:49:23.255Z,21.24
2022-08-26T17:52:01.827Z,21.24
2022-08-26T17:54:34.676Z,21.05
2022-08-26T17:57:07.037Z,20.91
2022-08-26T17:59:43.294Z,20.92
2022-08-26T18:02:21.488Z,21.00
2022-08-26T18:04:58.615Z,21.00
2022-08-26T18:07:33.837Z,20.93
2022-08-26T18:10:18.856Z,20.87
2022-08-26T18:12:51.823Z,20.80
2022-08-26T18:15:24.704Z,20.91
2022-08-26T18:17:57.055Z,20.90
2022-08-26T18:20:29.936Z,20.92
2022-08-26T18:23:05.005Z,20.89
2022-08-26T18:25:37.837Z,20.89
2022-08-26T18:28:10.285Z,20.77
2022-08-26T18:30:45.735Z,20.81
2022-08-26T18:33:20.498Z,20.72
2022-08-26T18:35:57.776Z,20.87
2022-08-26T18:38:35.016Z,20.87
2022-08-26T18:41:08.276Z,20.88
2022-08-26T18:43:40.737Z,20.69
2022-08-26T18:46:14.389Z,20.75
2022-08-26T18:48:50.997Z,20.82
2022-08-26T18:51:26.279Z,20.60
2022-08-26T18:54:01.816Z,20.77
2022-08-26T18:56:34.895Z,20.80
2022-08-26T18:59:10.199Z,20.56
2022-08-26T19:01:46.897Z,20.69
2022-08-26T19:04:23.016Z,20.69
2022-08-26T19:06:56.676Z,20.67
2022-08-26T19:09:32.023Z,20.67
2022-08-26T19:12:05.300Z,20.45
2022-08-26T19:14:38.497Z,20.22
2022-08-26T19:17:10.911Z,20.50
2022-08-26T19:19:43.056Z,20.59
2022-08-26T19:22:17.877Z,20.74
2022-08-26T19:24:52.677Z,20.76
2022-08-26T19:27:24.956Z,20.81
2022-08-26T19:29:57.957Z,20.76
2022-08-26T19:32:30.475Z,20.71
2022-08-26T19:35:02.657Z,20.79
2022-08-26T19:37:35.296Z,20.79
2022-08-26T19:40:10.962Z,20.84
2022-08-26T19:42:43.185Z,20.39
2022-08-26T19:45:24.588Z,20.28
2022-08-26T19:47:59.661Z,20.55
2022-08-26T19:50:38.233Z,20.25
2022-08-26T19:53:13.682Z,20.40
2022-08-26T19:55:50.717Z,20.54
2022-08-26T19:58:22.836Z,20.62
2022-08-26T20:00:54.845Z,20.64
2022-08-26T20:03:27.612Z,20.30
2022-08-26T20:05:59.383Z,19.97
2022-08-26T20:08:34.339Z,19.83
2022-08-26T20:11:14.282Z,19.94
2022-08-26T20:13:50.885Z,20.06
2022-08-26T20:16:22.650Z,20.02
2022-08-26T20:19:06.636Z,20.07
2022-08-26T20:21:45.710Z,19.82
2022-08-26T20:24:26.737Z,20.08
2022-08-26T20:27:06.768Z,20.21
2022-08-26T20:29:41.505Z,20.31
2022-08-26T20:32:32.611Z,20.33
2022-08-26T20:35:09.016Z,20.24
2022-08-26T20:37:43.959Z,20.40
2022-08-26T20:40:22.545Z,20.59
2022-08-26T20:42:57.059Z,20.30
2022-08-26T20:45:29.168Z,20.33
2022-08-26T20:48:04.374Z,20.24
2022-08-26T20:50:37.851Z,20.28
2022-08-26T20:53:11.522Z,20.27
2022-08-26T20:55:51.786Z,20.49
2022-08-26T20:58:27.031Z,20.52
2022-08-26T21:01:08.072Z,20.54
2022-08-26T21:03:41.427Z,20.64
2022-08-26T21:06:22.574Z,20.68
2022-08-26T21:09:02.689Z,20.48
2022-08-26T21:11:38.542Z,20.58
2022-08-26T21:14:16.013Z,20.69
2022-08-26T21:16:50.354Z,20.58
2022-08-26T21:19:24.975Z,20.46
2022-08-26T21:21:57.194Z,20.53
2022-08-26T21:24:31.954Z,20.63
2022-08-26T21:27:06.332Z,20.61
2022-08-26T21:29:42.201Z,20.68
2022-08-26T21:32:17.365Z,20.70
2022-08-26T21:34:54.915Z,20.65
2022-08-26T21:37:27.552Z,20.54
2022-08-26T21:40:04.409Z,20.43
2022-08-26T21:42:43.267Z,20.53
2022-08-26T21:45:20.281Z,20.64
2022-08-26T21:47:53.845Z,20.65
2022-08-26T21:50:30.100Z,20.56
2022-08-26T21:53:04.220Z,20.62
2022-08-26T21:55:39.144Z,20.31
2022-08-26T21:58:11.881Z,20.35
2022-08-26T22:00:53.455Z,20.57
2022-08-26T22:03:28.648Z,20.66
2022-08-26T22:06:04.087Z,20.51
2022-08-26T22:08:38.625Z,20.47
2022-08-26T22:11:10.666Z,20.07
2022-08-26T22:13:44.615Z,20.14
2022-08-26T22:16:19.710Z,20.13
2022-08-26T22:18:53.875Z,20.10
2022-08-26T22:21:28.284Z,20.31
2022-08-26T22:24:01.034Z,20.49
2022-08-26T22:26:35.524Z,20.54
2022-08-26T22:29:08.558Z,20.54
2022-08-26T22:31:43.741Z,20.48
2022-08-26T22:34:20.734Z,20.09
2022-08-26T22:36:54.536Z,20.43
2022-08-26T22:39:29.634Z,20.51
2022-08-26T22:42:04.275Z,20.48
2022-08-26T22:44:37.286Z,20.17
2022-08-26T22:47:12.067Z,20.25
2022-08-26T22:49:44.634Z,19.99
2022-08-26T22:52:17.418Z,20.22
2022-08-26T22:54:50.085Z,19.76
2022-08-26T22:57:24.386Z,19.54
2022-08-26T22:59:57.104Z,19.38
2022-08-26T23:02:31.944Z,19.52
2022-08-26T23:05:04.415Z,19.46
2022-08-26T23:07:37.092Z,19.59
2022-08-26T23:10:12.174Z,19.41
2022-08-26T23:12:44.425Z,19.70
2022-08-26T23:15:16.775Z,19.46
2022-08-26T23:17:58.333Z,19.51
2022-08-26T23:20:32.575Z,19.68
2022-08-26T23:23:05.289Z,19.92
2022-08-26T23:25:38.125Z,19.96
2022-08-26T23:28:13.446Z,20.01
2022-08-26T23:30:45.825Z,20.12
2022-08-26T23:33:20.715Z,20.10
2022-08-26T23:35:51.236Z,20.05
2022-08-26T23:38:23.405Z,20.12
2022-08-26T23:40:56.075Z,20.13
2022-08-26T23:43:29.924Z,20.02
2022-08-26T23:46:02.244Z,20.06
2022-08-26T23:48:36.934Z,20.09
2022-08-26T23:51:22.006Z,20.26
2022-08-26T23:53:54.686Z,20.30
2022-08-26T23:56:27.626Z,20.33
2022-08-26T23:58:59.715Z,20.33
